sensor_id;sensor_type;location;lat;lon;timestamp;P1;durP1;ratioP1;P2;durP2;ratioP2
63398;SDS011;49533;-34.520;150.798;2023-08-31T00:00:09;3.30;;;0.90;;
63398;SDS011;49533;-34.520;150.798;2023-08-31T00:02:40;2.45;;;0.88;;
63398;SDS011;49533;-34.520;150.798;2023-08-31T00:05:07;3.42;;;1.02;;
63398;SDS011;49533;-34.520;150.798;2023-08-31T00:07:34;2.05;;;0.70;;
63398;SDS011;49533;-34.520;150.798;2023-08-31T00:10:01;2.15;;;1.13;;
63398;SDS011;49533;-34.520;150.798;2023-08-31T00:12:35;2.00;;;1.10;;
63398;SDS011;49533;-34.520;150.798;2023-08-31T00:15:02;1.40;;;0.90;;
63398;SDS011;49533;-34.520;150.798;2023-08-31T00:17:34;3.30;;;1.15;;
63398;SDS011;49533;-34.520;150.798;2023-08-31T00:20:01;4.28;;;1.23;;
63398;SDS011;49533;-34.520;150.798;2023-08-31T00:22:31;3.53;;;0.80;;
63398;SDS011;49533;-34.520;150.798;2023-08-31T00:24:58;1.48;;;0.77;;
63398;SDS011;49533;-34.520;150.798;2023-08-31T00:27:25;4.07;;;0.90;;
63398;SDS011;49533;-34.520;150.798;2023-08-31T00:29:55;4.28;;;1.02;;
63398;SDS011;49533;-34.520;150.798;2023-08-31T00:32:23;2.00;;;0.98;;
63398;SDS011;49533;-34.520;150.798;2023-08-31T00:34:50;2.25;;;0.77;;
63398;SDS011;49533;-34.520;150.798;2023-08-31T00:37:17;3.25;;;0.82;;
63398;SDS011;49533;-34.520;150.798;2023-08-31T00:39:46;3.90;;;1.23;;
63398;SDS011;49533;-34.520;150.798;2023-08-31T00:42:17;3.53;;;0.70;;
63398;SDS011;49533;-34.520;150.798;2023-08-31T00:44:45;1.35;;;0.77;;
63398;SDS011;49533;-34.520;150.798;2023-08-31T00:47:13;1.00;;;0.55;;
63398;SDS011;49533;-34.520;150.798;2023-08-31T00:49:41;1.77;;;0.80;;
63398;SDS011;49533;-34.520;150.798;2023-08-31T00:52:08;6.32;;;1.23;;
63398;SDS011;49533;-34.520;150.798;2023-08-31T00:54:35;2.25;;;0.80;;
63398;SDS011;49533;-34.520;150.798;2023-08-31T00:57:04;3.55;;;0.93;;
63398;SDS011;49533;-34.520;150.798;2023-08-31T00:59:31;2.22;;;0.90;;
63398;SDS011;49533;-34.520;150.798;2023-08-31T01:04:48;3.97;;;1.40;;
63398;SDS011;49533;-34.520;150.798;2023-08-31T01:09:57;3.22;;;1.35;;
63398;SDS011;49533;-34.520;150.798;2023-08-31T01:15:09;3.45;;;1.13;;
63398;SDS011;49533;-34.520;150.798;2023-08-31T01:17:49;2.30;;;1.00;;
63398;SDS011;49533;-34.520;150.798;2023-08-31T01:21:03;3.72;;;0.90;;
63398;SDS011;49533;-34.520;150.798;2023-08-31T01:23:43;3.55;;;1.10;;
63398;SDS011;49533;-34.520;150.798;2023-08-31T01:26:16;2.90;;;1.30;;
63398;SDS011;49533;-34.520;150.798;2023-08-31T01:28:43;3.03;;;1.35;;
63398;SDS011;49533;-34.520;150.798;2023-08-31T01:31:11;4.50;;;1.33;;
63398;SDS011;49533;-34.520;150.798;2023-08-31T01:33:39;2.95;;;1.30;;
63398;SDS011;49533;-34.520;150.798;2023-08-31T01:36:08;3.80;;;0.90;;
63398;SDS011;49533;-34.520;150.798;2023-08-31T01:38:55;3.28;;;1.63;;
63398;SDS011;49533;-34.520;150.798;2023-08-31T01:41:33;4.72;;;1.20;;
63398;SDS011;49533;-34.520;150.798;2023-08-31T01:44:02;4.20;;;1.30;;
63398;SDS011;49533;-34.520;150.798;2023-08-31T01:46:31;2.90;;;1.00;;
63398;SDS011;49533;-34.520;150.798;2023-08-31T01:48:58;5.35;;;1.42;;
63398;SDS011;49533;-34.520;150.798;2023-08-31T01:51:25;7.13;;;1.75;;
63398;SDS011;49533;-34.520;150.798;2023-08-31T01:53:52;3.72;;;1.35;;
63398;SDS011;49533;-34.520;150.798;2023-08-31T01:56:19;3.97;;;1.10;;
63398;SDS011;49533;-34.520;150.798;2023-08-31T01:58:47;3.83;;;1.25;;
63398;SDS011;49533;-34.520;150.798;2023-08-31T02:01:14;4.07;;;1.08;;
63398;SDS011;49533;-34.520;150.798;2023-08-31T02:03:41;2.10;;;0.98;;
63398;SDS011;49533;-34.520;150.798;2023-08-31T02:06:08;3.50;;;1.25;;
63398;SDS011;49533;-34.520;150.798;2023-08-31T02:08:35;4.25;;;1.67;;
63398;SDS011;49533;-34.520;150.798;2023-08-31T02:11:02;6.00;;;1.60;;
63398;SDS011;49533;-34.520;150.798;2023-08-31T02:13:30;3.22;;;1.35;;
63398;SDS011;49533;-34.520;150.798;2023-08-31T02:15:57;3.72;;;1.30;;
63398;SDS011;49533;-34.520;150.798;2023-08-31T02:18:24;2.83;;;1.20;;
63398;SDS011;49533;-34.520;150.798;2023-08-31T02:20:54;4.60;;;1.33;;
63398;SDS011;49533;-34.520;150.798;2023-08-31T02:23:21;4.35;;;1.27;;
63398;SDS011;49533;-34.520;150.798;2023-08-31T02:25:48;2.70;;;0.98;;
63398;SDS011;49533;-34.520;150.798;2023-08-31T02:28:15;3.03;;;1.40;;
63398;SDS011;49533;-34.520;150.798;2023-08-31T02:30:45;4.95;;;1.13;;
63398;SDS011;49533;-34.520;150.798;2023-08-31T02:33:12;4.63;;;1.02;;
63398;SDS011;49533;-34.520;150.798;2023-08-31T02:35:39;2.95;;;1.05;;
63398;SDS011;49533;-34.520;150.798;2023-08-31T02:38:06;2.70;;;1.10;;
63398;SDS011;49533;-34.520;150.798;2023-08-31T02:40:34;1.63;;;0.95;;
63398;SDS011;49533;-34.520;150.798;2023-08-31T02:43:01;2.45;;;1.08;;
63398;SDS011;49533;-34.520;150.798;2023-08-31T02:45:28;2.90;;;0.88;;
63398;SDS011;49533;-34.520;150.798;2023-08-31T02:47:55;5.10;;;1.42;;
63398;SDS011;49533;-34.520;150.798;2023-08-31T02:50:22;3.85;;;1.58;;
63398;SDS011;49533;-34.520;150.798;2023-08-31T02:52:50;3.42;;;1.33;;
63398;SDS011;49533;-34.520;150.798;2023-08-31T02:55:17;4.22;;;1.00;;
63398;SDS011;49533;-34.520;150.798;2023-08-31T02:57:44;6.82;;;1.42;;
63398;SDS011;49533;-34.520;150.798;2023-08-31T03:00:11;3.00;;;0.85;;
63398;SDS011;49533;-34.520;150.798;2023-08-31T03:02:39;5.00;;;1.48;;
63398;SDS011;49533;-34.520;150.798;2023-08-31T03:05:06;9.48;;;1.77;;
63398;SDS011;49533;-34.520;150.798;2023-08-31T03:07:33;9.02;;;1.77;;
63398;SDS011;49533;-34.520;150.798;2023-08-31T03:10:00;6.40;;;1.45;;
63398;SDS011;49533;-34.520;150.798;2023-08-31T03:12:27;4.78;;;1.65;;
63398;SDS011;49533;-34.520;150.798;2023-08-31T03:14:54;4.38;;;1.50;;
63398;SDS011;49533;-34.520;150.798;2023-08-31T03:17:21;2.75;;;1.30;;
63398;SDS011;49533;-34.520;150.798;2023-08-31T03:19:49;3.28;;;1.25;;
63398;SDS011;49533;-34.520;150.798;2023-08-31T03:22:16;3.95;;;1.23;;
63398;SDS011;49533;-34.520;150.798;2023-08-31T03:24:43;3.78;;;1.30;;
63398;SDS011;49533;-34.520;150.798;2023-08-31T03:27:10;3.25;;;1.20;;
63398;SDS011;49533;-34.520;150.798;2023-08-31T03:29:37;3.65;;;1.15;;
63398;SDS011;49533;-34.520;150.798;2023-08-31T03:32:05;3.00;;;1.50;;
63398;SDS011;49533;-34.520;150.798;2023-08-31T03:34:33;5.28;;;1.08;;
63398;SDS011;49533;-34.520;150.798;2023-08-31T03:37:00;1.50;;;0.93;;
63398;SDS011;49533;-34.520;150.798;2023-08-31T03:39:27;5.63;;;1.65;;
63398;SDS011;49533;-34.520;150.798;2023-08-31T03:41:54;4.85;;;1.55;;
63398;SDS011;49533;-34.520;150.798;2023-08-31T03:44:21;3.58;;;1.35;;
63398;SDS011;49533;-34.520;150.798;2023-08-31T03:46:49;5.20;;;1.63;;
63398;SDS011;49533;-34.520;150.798;2023-08-31T03:49:16;3.92;;;1.50;;
63398;SDS011;49533;-34.520;150.798;2023-08-31T03:51:43;3.38;;;1.25;;
63398;SDS011;49533;-34.520;150.798;2023-08-31T03:54:10;5.22;;;1.27;;
63398;SDS011;49533;-34.520;150.798;2023-08-31T03:56:38;5.03;;;1.25;;
63398;SDS011;49533;-34.520;150.798;2023-08-31T03:59:05;5.50;;;1.65;;
63398;SDS011;49533;-34.520;150.798;2023-08-31T04:01:32;2.50;;;0.95;;
63398;SDS011;49533;-34.520;150.798;2023-08-31T04:04:00;3.15;;;1.00;;
63398;SDS011;49533;-34.520;150.798;2023-08-31T04:06:30;4.68;;;1.05;;
63398;SDS011;49533;-34.520;150.798;2023-08-31T04:08:57;5.05;;;1.40;;
63398;SDS011;49533;-34.520;150.798;2023-08-31T04:11:24;7.90;;;1.83;;
63398;SDS011;49533;-34.520;150.798;2023-08-31T04:13:52;9.27;;;1.77;;
63398;SDS011;49533;-34.520;150.798;2023-08-31T04:16:19;6.05;;;1.52;;
63398;SDS011;49533;-34.520;150.798;2023-08-31T04:18:47;12.43;;;2.58;;
63398;SDS011;49533;-34.520;150.798;2023-08-31T04:21:17;9.60;;;1.77;;
63398;SDS011;49533;-34.520;150.798;2023-08-31T04:23:44;5.25;;;1.42;;
63398;SDS011;49533;-34.520;150.798;2023-08-31T04:26:11;6.75;;;1.67;;
63398;SDS011;49533;-34.520;150.798;2023-08-31T04:28:39;6.18;;;1.50;;
63398;SDS011;49533;-34.520;150.798;2023-08-31T04:31:08;6.72;;;1.88;;
63398;SDS011;49533;-34.520;150.798;2023-08-31T04:33:36;5.28;;;1.73;;
63398;SDS011;49533;-34.520;150.798;2023-08-31T04:36:04;9.27;;;2.22;;
63398;SDS011;49533;-34.520;150.798;2023-08-31T04:38:31;7.25;;;1.40;;
63398;SDS011;49533;-34.520;150.798;2023-08-31T04:41:00;11.55;;;2.00;;
63398;SDS011;49533;-34.520;150.798;2023-08-31T04:43:28;7.68;;;1.67;;
63398;SDS011;49533;-34.520;150.798;2023-08-31T04:45:55;8.70;;;1.73;;
63398;SDS011;49533;-34.520;150.798;2023-08-31T04:48:22;6.50;;;1.50;;
63398;SDS011;49533;-34.520;150.798;2023-08-31T04:50:49;9.10;;;1.85;;
63398;SDS011;49533;-34.520;150.798;2023-08-31T04:53:19;8.50;;;1.67;;
63398;SDS011;49533;-34.520;150.798;2023-08-31T04:55:46;12.13;;;1.80;;
63398;SDS011;49533;-34.520;150.798;2023-08-31T04:58:13;8.02;;;1.98;;
63398;SDS011;49533;-34.520;150.798;2023-08-31T05:00:40;7.63;;;1.73;;
63398;SDS011;49533;-34.520;150.798;2023-08-31T05:03:07;8.30;;;1.83;;
63398;SDS011;49533;-34.520;150.798;2023-08-31T05:05:34;7.38;;;1.90;;
63398;SDS011;49533;-34.520;150.798;2023-08-31T05:08:01;4.78;;;1.50;;
63398;SDS011;49533;-34.520;150.798;2023-08-31T05:10:29;5.63;;;1.70;;
63398;SDS011;49533;-34.520;150.798;2023-08-31T05:12:56;5.55;;;1.55;;
63398;SDS011;49533;-34.520;150.798;2023-08-31T05:15:23;5.32;;;1.40;;
63398;SDS011;49533;-34.520;150.798;2023-08-31T05:17:53;4.88;;;1.73;;
63398;SDS011;49533;-34.520;150.798;2023-08-31T05:20:20;8.55;;;1.80;;
63398;SDS011;49533;-34.520;150.798;2023-08-31T05:22:49;3.00;;;1.35;;
63398;SDS011;49533;-34.520;150.798;2023-08-31T05:25:16;4.35;;;1.48;;
63398;SDS011;49533;-34.520;150.798;2023-08-31T05:27:44;6.70;;;1.90;;
63398;SDS011;49533;-34.520;150.798;2023-08-31T05:30:11;3.53;;;1.42;;
63398;SDS011;49533;-34.520;150.798;2023-08-31T05:32:38;5.50;;;1.33;;
63398;SDS011;49533;-34.520;150.798;2023-08-31T05:35:05;3.22;;;1.13;;
63398;SDS011;49533;-34.520;150.798;2023-08-31T05:37:33;5.20;;;1.40;;
63398;SDS011;49533;-34.520;150.798;2023-08-31T05:40:01;4.13;;;1.27;;
63398;SDS011;49533;-34.520;150.798;2023-08-31T05:42:36;3.05;;;1.05;;
63398;SDS011;49533;-34.520;150.798;2023-08-31T05:45:03;4.03;;;1.40;;
63398;SDS011;49533;-34.520;150.798;2023-08-31T05:47:30;5.70;;;1.17;;
63398;SDS011;49533;-34.520;150.798;2023-08-31T05:49:58;4.75;;;1.10;;
63398;SDS011;49533;-34.520;150.798;2023-08-31T05:52:25;4.80;;;1.40;;
63398;SDS011;49533;-34.520;150.798;2023-08-31T05:54:52;7.60;;;1.40;;
63398;SDS011;49533;-34.520;150.798;2023-08-31T05:57:19;6.00;;;1.73;;
63398;SDS011;49533;-34.520;150.798;2023-08-31T05:59:47;5.55;;;1.50;;
63398;SDS011;49533;-34.520;150.798;2023-08-31T06:02:14;3.20;;;1.30;;
63398;SDS011;49533;-34.520;150.798;2023-08-31T06:04:41;6.18;;;1.50;;
63398;SDS011;49533;-34.520;150.798;2023-08-31T06:07:08;4.65;;;1.58;;
63398;SDS011;49533;-34.520;150.798;2023-08-31T06:09:35;5.05;;;1.55;;
63398;SDS011;49533;-34.520;150.798;2023-08-31T06:12:04;7.00;;;1.50;;
63398;SDS011;49533;-34.520;150.798;2023-08-31T06:14:32;3.85;;;1.50;;
63398;SDS011;49533;-34.520;150.798;2023-08-31T06:16:59;4.40;;;1.65;;
63398;SDS011;49533;-34.520;150.798;2023-08-31T06:19:26;5.50;;;1.27;;
63398;SDS011;49533;-34.520;150.798;2023-08-31T06:21:53;4.80;;;1.33;;
63398;SDS011;49533;-34.520;150.798;2023-08-31T06:24:20;4.45;;;1.38;;
63398;SDS011;49533;-34.520;150.798;2023-08-31T06:26:47;4.82;;;1.35;;
63398;SDS011;49533;-34.520;150.798;2023-08-31T06:29:14;8.70;;;1.55;;
63398;SDS011;49533;-34.520;150.798;2023-08-31T06:31:41;7.63;;;1.85;;
63398;SDS011;49533;-34.520;150.798;2023-08-31T06:34:08;5.18;;;1.50;;
63398;SDS011;49533;-34.520;150.798;2023-08-31T06:36:35;3.28;;;1.27;;
63398;SDS011;49533;-34.520;150.798;2023-08-31T06:39:02;7.10;;;1.50;;
63398;SDS011;49533;-34.520;150.798;2023-08-31T06:41:30;7.82;;;1.90;;
63398;SDS011;49533;-34.520;150.798;2023-08-31T06:43:57;5.20;;;1.70;;
63398;SDS011;49533;-34.520;150.798;2023-08-31T06:46:24;4.57;;;1.92;;
63398;SDS011;49533;-34.520;150.798;2023-08-31T06:48:51;4.80;;;1.40;;
63398;SDS011;49533;-34.520;150.798;2023-08-31T06:51:18;4.38;;;1.65;;
63398;SDS011;49533;-34.520;150.798;2023-08-31T06:53:45;6.75;;;1.98;;
63398;SDS011;49533;-34.520;150.798;2023-08-31T06:56:14;4.18;;;1.60;;
63398;SDS011;49533;-34.520;150.798;2023-08-31T06:58:41;6.18;;;1.33;;
63398;SDS011;49533;-34.520;150.798;2023-08-31T07:01:09;3.75;;;1.02;;
63398;SDS011;49533;-34.520;150.798;2023-08-31T07:03:36;5.28;;;1.48;;
63398;SDS011;49533;-34.520;150.798;2023-08-31T07:06:03;5.10;;;1.52;;
63398;SDS011;49533;-34.520;150.798;2023-08-31T07:08:30;3.55;;;1.02;;
63398;SDS011;49533;-34.520;150.798;2023-08-31T07:10:57;2.80;;;1.38;;
63398;SDS011;49533;-34.520;150.798;2023-08-31T07:13:24;3.08;;;0.98;;
63398;SDS011;49533;-34.520;150.798;2023-08-31T07:15:51;5.40;;;1.38;;
63398;SDS011;49533;-34.520;150.798;2023-08-31T07:18:19;7.53;;;2.03;;
63398;SDS011;49533;-34.520;150.798;2023-08-31T07:20:46;3.22;;;1.42;;
63398;SDS011;49533;-34.520;150.798;2023-08-31T07:23:13;5.40;;;1.58;;
63398;SDS011;49533;-34.520;150.798;2023-08-31T07:25:40;3.83;;;1.40;;
63398;SDS011;49533;-34.520;150.798;2023-08-31T07:28:08;7.18;;;1.77;;
63398;SDS011;49533;-34.520;150.798;2023-08-31T07:30:36;5.45;;;1.63;;
63398;SDS011;49533;-34.520;150.798;2023-08-31T07:33:03;3.20;;;0.93;;
63398;SDS011;49533;-34.520;150.798;2023-08-31T07:35:30;2.60;;;1.10;;
63398;SDS011;49533;-34.520;150.798;2023-08-31T07:37:57;2.53;;;1.15;;
63398;SDS011;49533;-34.520;150.798;2023-08-31T07:40:24;7.38;;;1.75;;
63398;SDS011;49533;-34.520;150.798;2023-08-31T07:42:51;4.55;;;1.52;;
63398;SDS011;49533;-34.520;150.798;2023-08-31T07:45:18;2.97;;;1.05;;
63398;SDS011;49533;-34.520;150.798;2023-08-31T07:47:45;5.85;;;1.50;;
63398;SDS011;49533;-34.520;150.798;2023-08-31T07:50:14;4.32;;;1.83;;
63398;SDS011;49533;-34.520;150.798;2023-08-31T07:52:41;3.15;;;1.30;;
63398;SDS011;49533;-34.520;150.798;2023-08-31T07:55:08;3.47;;;1.30;;
63398;SDS011;49533;-34.520;150.798;2023-08-31T07:57:35;3.55;;;1.02;;
63398;SDS011;49533;-34.520;150.798;2023-08-31T08:00:02;3.80;;;1.48;;
63398;SDS011;49533;-34.520;150.798;2023-08-31T08:02:30;2.45;;;1.63;;
63398;SDS011;49533;-34.520;150.798;2023-08-31T08:04:57;2.72;;;1.33;;
63398;SDS011;49533;-34.520;150.798;2023-08-31T08:07:24;3.42;;;1.30;;
63398;SDS011;49533;-34.520;150.798;2023-08-31T08:09:51;3.10;;;1.42;;
63398;SDS011;49533;-34.520;150.798;2023-08-31T08:12:18;2.95;;;0.90;;
63398;SDS011;49533;-34.520;150.798;2023-08-31T08:14:45;4.63;;;1.20;;
63398;SDS011;49533;-34.520;150.798;2023-08-31T08:17:12;3.13;;;1.10;;
63398;SDS011;49533;-34.520;150.798;2023-08-31T08:19:39;5.10;;;1.50;;
63398;SDS011;49533;-34.520;150.798;2023-08-31T08:22:06;3.83;;;1.45;;
63398;SDS011;49533;-34.520;150.798;2023-08-31T08:24:33;3.67;;;1.30;;
63398;SDS011;49533;-34.520;150.798;2023-08-31T08:27:00;3.30;;;1.05;;
63398;SDS011;49533;-34.520;150.798;2023-08-31T08:29:28;3.58;;;1.45;;
63398;SDS011;49533;-34.520;150.798;2023-08-31T08:31:55;1.88;;;0.95;;
63398;SDS011;49533;-34.520;150.798;2023-08-31T08:34:22;3.40;;;1.25;;
63398;SDS011;49533;-34.520;150.798;2023-08-31T08:36:49;3.22;;;1.45;;
63398;SDS011;49533;-34.520;150.798;2023-08-31T08:39:16;2.17;;;1.02;;
63398;SDS011;49533;-34.520;150.798;2023-08-31T08:41:43;4.20;;;1.45;;
63398;SDS011;49533;-34.520;150.798;2023-08-31T08:44:11;4.15;;;1.52;;
63398;SDS011;49533;-34.520;150.798;2023-08-31T08:46:42;2.33;;;1.23;;
63398;SDS011;49533;-34.520;150.798;2023-08-31T08:49:11;2.25;;;1.13;;
63398;SDS011;49533;-34.520;150.798;2023-08-31T08:51:39;2.65;;;1.08;;
63398;SDS011;49533;-34.520;150.798;2023-08-31T08:54:07;2.65;;;0.93;;
63398;SDS011;49533;-34.520;150.798;2023-08-31T08:56:35;3.90;;;1.30;;
63398;SDS011;49533;-34.520;150.798;2023-08-31T08:59:02;2.72;;;1.30;;
63398;SDS011;49533;-34.520;150.798;2023-08-31T09:01:29;3.15;;;1.50;;
63398;SDS011;49533;-34.520;150.798;2023-08-31T09:03:56;3.97;;;1.33;;
63398;SDS011;49533;-34.520;150.798;2023-08-31T09:06:23;4.60;;;1.58;;
63398;SDS011;49533;-34.520;150.798;2023-08-31T09:08:56;5.28;;;1.85;;
63398;SDS011;49533;-34.520;150.798;2023-08-31T09:11:24;3.22;;;1.60;;
63398;SDS011;49533;-34.520;150.798;2023-08-31T09:13:52;7.03;;;2.00;;
63398;SDS011;49533;-34.520;150.798;2023-08-31T09:16:26;5.55;;;2.45;;
63398;SDS011;49533;-34.520;150.798;2023-08-31T09:18:55;2.53;;;1.20;;
63398;SDS011;49533;-34.520;150.798;2023-08-31T09:21:43;4.28;;;1.70;;
63398;SDS011;49533;-34.520;150.798;2023-08-31T09:24:11;4.55;;;1.70;;
63398;SDS011;49533;-34.520;150.798;2023-08-31T09:26:39;1.80;;;1.15;;
63398;SDS011;49533;-34.520;150.798;2023-08-31T09:29:26;2.47;;;1.17;;
63398;SDS011;49533;-34.520;150.798;2023-08-31T09:31:54;3.80;;;1.55;;
63398;SDS011;49533;-34.520;150.798;2023-08-31T09:34:23;5.25;;;2.00;;
63398;SDS011;49533;-34.520;150.798;2023-08-31T09:37:06;3.60;;;1.45;;
63398;SDS011;49533;-34.520;150.798;2023-08-31T09:39:40;5.20;;;1.63;;
63398;SDS011;49533;-34.520;150.798;2023-08-31T09:42:08;3.67;;;1.13;;
63398;SDS011;49533;-34.520;150.798;2023-08-31T09:44:39;4.30;;;1.92;;
63398;SDS011;49533;-34.520;150.798;2023-08-31T09:47:08;5.10;;;1.88;;
63398;SDS011;49533;-34.520;150.798;2023-08-31T09:49:36;5.70;;;1.98;;
63398;SDS011;49533;-34.520;150.798;2023-08-31T09:52:05;2.78;;;1.52;;
63398;SDS011;49533;-34.520;150.798;2023-08-31T09:54:33;2.38;;;1.25;;
63398;SDS011;49533;-34.520;150.798;2023-08-31T09:57:02;4.28;;;1.70;;
63398;SDS011;49533;-34.520;150.798;2023-08-31T09:59:30;8.00;;;1.83;;
63398;SDS011;49533;-34.520;150.798;2023-08-31T10:01:59;3.35;;;1.77;;
63398;SDS011;49533;-34.520;150.798;2023-08-31T10:04:28;5.90;;;2.03;;
63398;SDS011;49533;-34.520;150.798;2023-08-31T10:06:57;5.82;;;1.92;;
63398;SDS011;49533;-34.520;150.798;2023-08-31T10:09:25;4.65;;;1.70;;
63398;SDS011;49533;-34.520;150.798;2023-08-31T10:11:52;2.00;;;1.23;;
63398;SDS011;49533;-34.520;150.798;2023-08-31T10:14:20;3.33;;;1.67;;
63398;SDS011;49533;-34.520;150.798;2023-08-31T10:16:48;3.55;;;1.75;;
63398;SDS011;49533;-34.520;150.798;2023-08-31T10:19:18;3.85;;;1.65;;
63398;SDS011;49533;-34.520;150.798;2023-08-31T10:21:45;2.13;;;1.45;;
63398;SDS011;49533;-34.520;150.798;2023-08-31T10:24:12;5.20;;;1.98;;
63398;SDS011;49533;-34.520;150.798;2023-08-31T10:26:39;3.88;;;2.55;;
63398;SDS011;49533;-34.520;150.798;2023-08-31T10:29:07;5.90;;;2.47;;
63398;SDS011;49533;-34.520;150.798;2023-08-31T10:31:53;7.22;;;2.00;;
63398;SDS011;49533;-34.520;150.798;2023-08-31T10:34:33;5.10;;;2.28;;
63398;SDS011;49533;-34.520;150.798;2023-08-31T10:37:03;4.78;;;2.28;;
63398;SDS011;49533;-34.520;150.798;2023-08-31T10:39:49;2.03;;;1.75;;
63398;SDS011;49533;-34.520;150.798;2023-08-31T10:42:41;3.50;;;1.85;;
63398;SDS011;49533;-34.520;150.798;2023-08-31T10:45:09;2.42;;;1.73;;
63398;SDS011;49533;-34.520;150.798;2023-08-31T10:47:37;4.18;;;1.88;;
63398;SDS011;49533;-34.520;150.798;2023-08-31T10:50:20;3.13;;;1.95;;
63398;SDS011;49533;-34.520;150.798;2023-08-31T10:52:49;4.45;;;2.15;;
63398;SDS011;49533;-34.520;150.798;2023-08-31T10:55:16;3.75;;;2.25;;
63398;SDS011;49533;-34.520;150.798;2023-08-31T10:57:43;4.07;;;1.85;;
63398;SDS011;49533;-34.520;150.798;2023-08-31T11:00:11;2.85;;;1.60;;
63398;SDS011;49533;-34.520;150.798;2023-08-31T11:02:43;4.05;;;1.58;;
63398;SDS011;49533;-34.520;150.798;2023-08-31T11:07:43;2.90;;;1.40;;
63398;SDS011;49533;-34.520;150.798;2023-08-31T11:10:18;2.20;;;1.52;;
63398;SDS011;49533;-34.520;150.798;2023-08-31T11:12:49;2.08;;;1.25;;
63398;SDS011;49533;-34.520;150.798;2023-08-31T11:15:22;3.42;;;1.35;;
63398;SDS011;49533;-34.520;150.798;2023-08-31T11:17:52;2.13;;;1.20;;
63398;SDS011;49533;-34.520;150.798;2023-08-31T11:20:21;3.03;;;1.60;;
63398;SDS011;49533;-34.520;150.798;2023-08-31T11:22:54;0.97;;;0.80;;
63398;SDS011;49533;-34.520;150.798;2023-08-31T11:25:21;2.58;;;1.33;;
63398;SDS011;49533;-34.520;150.798;2023-08-31T11:27:54;1.63;;;0.95;;
63398;SDS011;49533;-34.520;150.798;2023-08-31T11:30:22;1.08;;;0.95;;
63398;SDS011;49533;-34.520;150.798;2023-08-31T11:32:51;0.82;;;0.70;;
63398;SDS011;49533;-34.520;150.798;2023-08-31T11:35:19;1.13;;;1.02;;
63398;SDS011;49533;-34.520;150.798;2023-08-31T11:37:52;1.45;;;1.13;;
63398;SDS011;49533;-34.520;150.798;2023-08-31T11:40:21;2.53;;;0.82;;
63398;SDS011;49533;-34.520;150.798;2023-08-31T11:42:49;1.10;;;0.80;;
63398;SDS011;49533;-34.520;150.798;2023-08-31T11:45:17;1.40;;;0.80;;
63398;SDS011;49533;-34.520;150.798;2023-08-31T11:47:46;1.65;;;0.70;;
63398;SDS011;49533;-34.520;150.798;2023-08-31T11:50:16;1.15;;;0.80;;
63398;SDS011;49533;-34.520;150.798;2023-08-31T11:52:44;0.75;;;0.73;;
63398;SDS011;49533;-34.520;150.798;2023-08-31T11:55:13;2.05;;;0.98;;
63398;SDS011;49533;-34.520;150.798;2023-08-31T11:57:51;1.95;;;0.85;;
63398;SDS011;49533;-34.520;150.798;2023-08-31T12:00:23;1.30;;;0.73;;
63398;SDS011;49533;-34.520;150.798;2023-08-31T12:02:59;1.58;;;0.93;;
63398;SDS011;49533;-34.520;150.798;2023-08-31T12:05:43;1.30;;;0.70;;
63398;SDS011;49533;-34.520;150.798;2023-08-31T12:08:11;1.63;;;0.70;;
63398;SDS011;49533;-34.520;150.798;2023-08-31T12:10:42;1.02;;;0.50;;
63398;SDS011;49533;-34.520;150.798;2023-08-31T12:13:09;1.23;;;0.98;;
63398;SDS011;49533;-34.520;150.798;2023-08-31T12:15:40;0.65;;;0.57;;
63398;SDS011;49533;-34.520;150.798;2023-08-31T12:18:13;1.33;;;0.90;;
63398;SDS011;49533;-34.520;150.798;2023-08-31T12:20:46;0.80;;;0.80;;
63398;SDS011;49533;-34.520;150.798;2023-08-31T12:23:17;1.30;;;0.70;;
63398;SDS011;49533;-34.520;150.798;2023-08-31T12:25:50;2.08;;;0.85;;
63398;SDS011;49533;-34.520;150.798;2023-08-31T12:28:19;1.90;;;0.90;;
63398;SDS011;49533;-34.520;150.798;2023-08-31T12:30:48;0.98;;;0.63;;
63398;SDS011;49533;-34.520;150.798;2023-08-31T12:33:16;1.88;;;0.80;;
63398;SDS011;49533;-34.520;150.798;2023-08-31T12:35:44;0.90;;;0.60;;
63398;SDS011;49533;-34.520;150.798;2023-08-31T12:38:12;1.73;;;0.85;;
63398;SDS011;49533;-34.520;150.798;2023-08-31T12:40:39;1.88;;;0.90;;
63398;SDS011;49533;-34.520;150.798;2023-08-31T12:43:06;0.95;;;0.70;;
63398;SDS011;49533;-34.520;150.798;2023-08-31T12:45:35;1.35;;;0.80;;
63398;SDS011;49533;-34.520;150.798;2023-08-31T12:48:02;0.77;;;0.75;;
63398;SDS011;49533;-34.520;150.798;2023-08-31T12:50:30;1.88;;;0.80;;
63398;SDS011;49533;-34.520;150.798;2023-08-31T12:52:57;0.93;;;0.60;;
63398;SDS011;49533;-34.520;150.798;2023-08-31T12:55:24;1.27;;;0.50;;
63398;SDS011;49533;-34.520;150.798;2023-08-31T12:57:51;1.33;;;0.60;;
63398;SDS011;49533;-34.520;150.798;2023-08-31T13:00:18;0.57;;;0.57;;
63398;SDS011;49533;-34.520;150.798;2023-08-31T13:02:46;0.93;;;0.65;;
63398;SDS011;49533;-34.520;150.798;2023-08-31T13:05:13;0.85;;;0.70;;
63398;SDS011;49533;-34.520;150.798;2023-08-31T13:07:40;0.50;;;0.50;;
63398;SDS011;49533;-34.520;150.798;2023-08-31T13:10:07;0.82;;;0.60;;
63398;SDS011;49533;-34.520;150.798;2023-08-31T13:12:34;0.55;;;0.50;;
63398;SDS011;49533;-34.520;150.798;2023-08-31T13:15:02;1.75;;;0.50;;
63398;SDS011;49533;-34.520;150.798;2023-08-31T13:17:30;1.15;;;0.70;;
63398;SDS011;49533;-34.520;150.798;2023-08-31T13:19:57;0.68;;;0.43;;
63398;SDS011;49533;-34.520;150.798;2023-08-31T13:22:27;1.20;;;0.40;;
63398;SDS011;49533;-34.520;150.798;2023-08-31T13:25:11;0.60;;;0.50;;
63398;SDS011;49533;-34.520;150.798;2023-08-31T13:27:39;0.50;;;0.40;;
63398;SDS011;49533;-34.520;150.798;2023-08-31T13:30:07;0.80;;;0.68;;
63398;SDS011;49533;-34.520;150.798;2023-08-31T13:32:35;0.80;;;0.80;;
63398;SDS011;49533;-34.520;150.798;2023-08-31T13:35:02;0.77;;;0.73;;
63398;SDS011;49533;-34.520;150.798;2023-08-31T13:37:33;0.90;;;0.90;;
63398;SDS011;49533;-34.520;150.798;2023-08-31T13:40:00;1.27;;;0.70;;
63398;SDS011;49533;-34.520;150.798;2023-08-31T13:42:33;0.80;;;0.80;;
63398;SDS011;49533;-34.520;150.798;2023-08-31T13:45:07;0.73;;;0.73;;
63398;SDS011;49533;-34.520;150.798;2023-08-31T13:47:34;0.70;;;0.70;;
63398;SDS011;49533;-34.520;150.798;2023-08-31T13:50:01;0.70;;;0.70;;
63398;SDS011;49533;-34.520;150.798;2023-08-31T13:52:29;1.77;;;0.63;;
63398;SDS011;49533;-34.520;150.798;2023-08-31T13:54:56;0.98;;;0.93;;
63398;SDS011;49533;-34.520;150.798;2023-08-31T13:57:23;0.70;;;0.70;;
63398;SDS011;49533;-34.520;150.798;2023-08-31T13:59:50;1.08;;;0.98;;
63398;SDS011;49533;-34.520;150.798;2023-08-31T14:02:18;0.52;;;0.52;;
63398;SDS011;49533;-34.520;150.798;2023-08-31T14:04:45;0.70;;;0.68;;
63398;SDS011;49533;-34.520;150.798;2023-08-31T14:07:12;1.63;;;0.60;;
63398;SDS011;49533;-34.520;150.798;2023-08-31T14:09:39;0.52;;;0.50;;
63398;SDS011;49533;-34.520;150.798;2023-08-31T14:12:06;0.40;;;0.40;;
63398;SDS011;49533;-34.520;150.798;2023-08-31T14:14:34;0.75;;;0.75;;
63398;SDS011;49533;-34.520;150.798;2023-08-31T14:17:01;0.52;;;0.47;;
63398;SDS011;49533;-34.520;150.798;2023-08-31T14:19:30;0.77;;;0.70;;
63398;SDS011;49533;-34.520;150.798;2023-08-31T14:21:59;0.60;;;0.60;;
63398;SDS011;49533;-34.520;150.798;2023-08-31T14:24:26;0.68;;;0.60;;
63398;SDS011;49533;-34.520;150.798;2023-08-31T14:26:53;1.15;;;0.65;;